sensor_id;sensor_type;location;lat;lon;timestamp;temperature;humidity
58469;DHT22;44257;44.804;10.220;2023-08-08T00:01:31;17.30;79.80
58469;DHT22;44257;44.804;10.220;2023-08-08T00:03:56;17.30;80.90
58469;DHT22;44257;44.804;10.220;2023-08-08T00:06:22;17.30;81.10
58469;DHT22;44257;44.804;10.220;2023-08-08T00:08:48;17.30;81.20
58469;DHT22;44257;44.804;10.220;2023-08-08T00:11:14;17.30;81.80
58469;DHT22;44257;44.804;10.220;2023-08-08T00:13:40;17.30;82.10
58469;DHT22;44257;44.804;10.220;2023-08-08T00:16:06;17.30;81.20
58469;DHT22;44257;44.804;10.220;2023-08-08T00:18:32;17.20;81.40
58469;DHT22;44257;44.804;10.220;2023-08-08T00:20:58;17.30;80.80
58469;DHT22;44257;44.804;10.220;2023-08-08T00:23:24;17.30;80.30
58469;DHT22;44257;44.804;10.220;2023-08-08T00:25:50;17.30;80.80
58469;DHT22;44257;44.804;10.220;2023-08-08T00:28:17;17.30;80.40
58469;DHT22;44257;44.804;10.220;2023-08-08T00:30:44;17.30;80.70
58469;DHT22;44257;44.804;10.220;2023-08-08T00:33:10;17.30;80.60
58469;DHT22;44257;44.804;10.220;2023-08-08T00:35:36;17.20;80.20
58469;DHT22;44257;44.804;10.220;2023-08-08T00:38:02;17.20;81.30
58469;DHT22;44257;44.804;10.220;2023-08-08T00:40:28;17.20;81.10
58469;DHT22;44257;44.804;10.220;2023-08-08T00:42:54;17.30;81.40
58469;DHT22;44257;44.804;10.220;2023-08-08T00:45:20;17.20;81.80
58469;DHT22;44257;44.804;10.220;2023-08-08T00:47:46;17.20;82.60
58469;DHT22;44257;44.804;10.220;2023-08-08T00:50:13;17.20;82.60
58469;DHT22;44257;44.804;10.220;2023-08-08T00:52:40;17.20;81.90
58469;DHT22;44257;44.804;10.220;2023-08-08T00:55:07;17.20;83.00
58469;DHT22;44257;44.804;10.220;2023-08-08T00:57:34;17.10;82.90
58469;DHT22;44257;44.804;10.220;2023-08-08T01:00:01;17.10;83.80
58469;DHT22;44257;44.804;10.220;2023-08-08T01:02:28;17.10;84.60
58469;DHT22;44257;44.804;10.220;2023-08-08T01:04:54;17.10;84.30
58469;DHT22;44257;44.804;10.220;2023-08-08T01:08:10;17.10;84.70
58469;DHT22;44257;44.804;10.220;2023-08-08T01:10:17;17.10;84.40
58469;DHT22;44257;44.804;10.220;2023-08-08T01:12:50;17.10;84.40
58469;DHT22;44257;44.804;10.220;2023-08-08T01:15:17;17.10;84.50
58469;DHT22;44257;44.804;10.220;2023-08-08T01:17:44;17.10;83.90
58469;DHT22;44257;44.804;10.220;2023-08-08T01:20:12;17.00;85.00
58469;DHT22;44257;44.804;10.220;2023-08-08T01:23:09;16.90;84.60
58469;DHT22;44257;44.804;10.220;2023-08-08T01:25:39;16.90;85.00
58469;DHT22;44257;44.804;10.220;2023-08-08T01:28:07;16.90;85.40
58469;DHT22;44257;44.804;10.220;2023-08-08T01:30:33;16.90;84.40
58469;DHT22;44257;44.804;10.220;2023-08-08T01:33:00;16.90;83.70
58469;DHT22;44257;44.804;10.220;2023-08-08T01:35:30;16.90;84.80
58469;DHT22;44257;44.804;10.220;2023-08-08T01:38:26;16.90;84.60
58469;DHT22;44257;44.804;10.220;2023-08-08T01:40:55;16.90;84.30
58469;DHT22;44257;44.804;10.220;2023-08-08T01:43:22;16.90;85.10
58469;DHT22;44257;44.804;10.220;2023-08-08T01:45:49;16.90;84.30
58469;DHT22;44257;44.804;10.220;2023-08-08T01:48:15;16.80;84.80
58469;DHT22;44257;44.804;10.220;2023-08-08T01:50:41;16.70;85.00
58469;DHT22;44257;44.804;10.220;2023-08-08T01:53:07;16.70;85.60
58469;DHT22;44257;44.804;10.220;2023-08-08T01:55:33;16.70;85.40
58469;DHT22;44257;44.804;10.220;2023-08-08T01:57:59;16.60;86.30
58469;DHT22;44257;44.804;10.220;2023-08-08T02:00:25;16.60;86.10
58469;DHT22;44257;44.804;10.220;2023-08-08T02:02:52;16.50;86.10
58469;DHT22;44257;44.804;10.220;2023-08-08T02:05:18;16.40;86.10
58469;DHT22;44257;44.804;10.220;2023-08-08T02:07:44;16.30;87.00
58469;DHT22;44257;44.804;10.220;2023-08-08T02:10:09;16.20;87.30
58469;DHT22;44257;44.804;10.220;2023-08-08T02:12:35;16.20;87.30
58469;DHT22;44257;44.804;10.220;2023-08-08T02:15:01;16.10;87.50
58469;DHT22;44257;44.804;10.220;2023-08-08T02:17:29;16.10;88.00
58469;DHT22;44257;44.804;10.220;2023-08-08T02:19:55;16.00;88.70
58469;DHT22;44257;44.804;10.220;2023-08-08T02:22:22;16.00;88.40
58469;DHT22;44257;44.804;10.220;2023-08-08T02:24:50;15.90;89.10
58469;DHT22;44257;44.804;10.220;2023-08-08T02:27:15;15.90;89.40
58469;DHT22;44257;44.804;10.220;2023-08-08T02:29:41;15.80;89.30
58469;DHT22;44257;44.804;10.220;2023-08-08T02:32:07;15.70;90.00
58469;DHT22;44257;44.804;10.220;2023-08-08T02:34:33;15.70;90.20
58469;DHT22;44257;44.804;10.220;2023-08-08T02:37:01;15.60;90.20
58469;DHT22;44257;44.804;10.220;2023-08-08T02:39:26;15.50;90.50
58469;DHT22;44257;44.804;10.220;2023-08-08T02:41:52;15.50;91.20
58469;DHT22;44257;44.804;10.220;2023-08-08T02:44:19;15.40;91.60
58469;DHT22;44257;44.804;10.220;2023-08-08T02:46:45;15.40;91.70
58469;DHT22;44257;44.804;10.220;2023-08-08T02:49:11;15.30;92.10
58469;DHT22;44257;44.804;10.220;2023-08-08T02:51:37;15.30;92.40
58469;DHT22;44257;44.804;10.220;2023-08-08T02:54:03;15.20;92.70
58469;DHT22;44257;44.804;10.220;2023-08-08T02:56:31;15.10;93.20
58469;DHT22;44257;44.804;10.220;2023-08-08T02:58:57;15.00;93.60
58469;DHT22;44257;44.804;10.220;2023-08-08T03:01:23;15.00;93.90
58469;DHT22;44257;44.804;10.220;2023-08-08T03:03:50;15.00;94.10
58469;DHT22;44257;44.804;10.220;2023-08-08T03:06:18;14.90;94.30
58469;DHT22;44257;44.804;10.220;2023-08-08T03:08:44;14.90;94.50
58469;DHT22;44257;44.804;10.220;2023-08-08T03:11:10;14.80;94.80
58469;DHT22;44257;44.804;10.220;2023-08-08T03:13:36;14.80;95.30
58469;DHT22;44257;44.804;10.220;2023-08-08T03:16:03;14.70;95.60
58469;DHT22;44257;44.804;10.220;2023-08-08T03:18:29;14.70;95.40
58469;DHT22;44257;44.804;10.220;2023-08-08T03:20:55;14.70;95.50
58469;DHT22;44257;44.804;10.220;2023-08-08T03:23:22;14.70;95.90
58469;DHT22;44257;44.804;10.220;2023-08-08T03:25:49;14.70;96.80
58469;DHT22;44257;44.804;10.220;2023-08-08T03:28:16;14.70;97.20
58469;DHT22;44257;44.804;10.220;2023-08-08T03:30:42;14.70;97.80
58469;DHT22;44257;44.804;10.220;2023-08-08T03:33:09;14.60;98.10
58469;DHT22;44257;44.804;10.220;2023-08-08T03:35:35;14.60;98.20
58469;DHT22;44257;44.804;10.220;2023-08-08T03:38:01;14.70;98.20
58469;DHT22;44257;44.804;10.220;2023-08-08T03:40:28;14.70;98.10
58469;DHT22;44257;44.804;10.220;2023-08-08T03:42:55;14.70;97.80
58469;DHT22;44257;44.804;10.220;2023-08-08T03:45:21;14.70;97.50
58469;DHT22;44257;44.804;10.220;2023-08-08T03:47:46;14.80;97.70
58469;DHT22;44257;44.804;10.220;2023-08-08T03:50:13;14.80;98.10
58469;DHT22;44257;44.804;10.220;2023-08-08T03:52:39;14.80;97.50
58469;DHT22;44257;44.804;10.220;2023-08-08T03:55:09;14.80;97.60
58469;DHT22;44257;44.804;10.220;2023-08-08T03:57:36;14.80;97.60
58469;DHT22;44257;44.804;10.220;2023-08-08T04:00:03;14.80;97.90
58469;DHT22;44257;44.804;10.220;2023-08-08T04:02:38;14.80;97.80
58469;DHT22;44257;44.804;10.220;2023-08-08T04:05:04;14.80;97.80
58469;DHT22;44257;44.804;10.220;2023-08-08T04:07:30;14.80;97.80
58469;DHT22;44257;44.804;10.220;2023-08-08T04:09:56;14.70;98.10
58469;DHT22;44257;44.804;10.220;2023-08-08T04:12:22;14.70;98.20
58469;DHT22;44257;44.804;10.220;2023-08-08T04:14:48;14.70;98.20
58469;DHT22;44257;44.804;10.220;2023-08-08T04:17:14;14.60;98.00
58469;DHT22;44257;44.804;10.220;2023-08-08T04:19:39;14.60;98.10
58469;DHT22;44257;44.804;10.220;2023-08-08T04:22:05;14.60;98.60
58469;DHT22;44257;44.804;10.220;2023-08-08T04:24:31;14.50;98.50
58469;DHT22;44257;44.804;10.220;2023-08-08T04:26:57;14.50;98.70
58469;DHT22;44257;44.804;10.220;2023-08-08T04:29:22;14.50;98.90
58469;DHT22;44257;44.804;10.220;2023-08-08T04:31:48;14.50;98.90
58469;DHT22;44257;44.804;10.220;2023-08-08T04:34:14;14.60;99.00
58469;DHT22;44257;44.804;10.220;2023-08-08T04:36:40;14.60;99.10
58469;DHT22;44257;44.804;10.220;2023-08-08T04:39:06;14.70;98.80
58469;DHT22;44257;44.804;10.220;2023-08-08T04:41:31;14.70;99.00
58469;DHT22;44257;44.804;10.220;2023-08-08T04:43:57;14.70;98.80
58469;DHT22;44257;44.804;10.220;2023-08-08T04:46:23;14.80;98.50
58469;DHT22;44257;44.804;10.220;2023-08-08T04:48:49;14.70;98.70
58469;DHT22;44257;44.804;10.220;2023-08-08T04:51:16;14.80;99.50
58469;DHT22;44257;44.804;10.220;2023-08-08T04:53:42;14.80;99.30
58469;DHT22;44257;44.804;10.220;2023-08-08T04:56:07;14.80;99.00
58469;DHT22;44257;44.804;10.220;2023-08-08T04:58:33;14.90;99.50
58469;DHT22;44257;44.804;10.220;2023-08-08T05:00:59;14.90;99.60
58469;DHT22;44257;44.804;10.220;2023-08-08T05:03:25;14.90;99.50
58469;DHT22;44257;44.804;10.220;2023-08-08T05:05:51;15.00;99.70
58469;DHT22;44257;44.804;10.220;2023-08-08T05:08:17;15.00;99.90
58469;DHT22;44257;44.804;10.220;2023-08-08T05:10:43;15.10;99.50
58469;DHT22;44257;44.804;10.220;2023-08-08T05:13:09;15.10;99.70
58469;DHT22;44257;44.804;10.220;2023-08-08T05:15:36;15.20;99.70
58469;DHT22;44257;44.804;10.220;2023-08-08T05:18:02;15.40;99.20
58469;DHT22;44257;44.804;10.220;2023-08-08T05:20:27;15.50;99.50
58469;DHT22;44257;44.804;10.220;2023-08-08T05:22:53;15.70;98.80
58469;DHT22;44257;44.804;10.220;2023-08-08T05:25:19;16.00;98.70
58469;DHT22;44257;44.804;10.220;2023-08-08T05:27:45;16.50;97.90
58469;DHT22;44257;44.804;10.220;2023-08-08T05:30:11;16.90;96.40
58469;DHT22;44257;44.804;10.220;2023-08-08T05:32:36;17.50;96.50
58469;DHT22;44257;44.804;10.220;2023-08-08T05:35:03;18.20;95.90
58469;DHT22;44257;44.804;10.220;2023-08-08T05:37:30;18.90;93.60
58469;DHT22;44257;44.804;10.220;2023-08-08T05:39:56;19.50;92.50
58469;DHT22;44257;44.804;10.220;2023-08-08T05:42:21;20.00;92.30
58469;DHT22;44257;44.804;10.220;2023-08-08T05:44:47;20.60;90.30
58469;DHT22;44257;44.804;10.220;2023-08-08T05:47:13;20.80;87.80
58469;DHT22;44257;44.804;10.220;2023-08-08T05:49:39;20.60;88.50
58469;DHT22;44257;44.804;10.220;2023-08-08T05:52:08;20.40;88.60
58469;DHT22;44257;44.804;10.220;2023-08-08T05:54:34;20.20;88.60
58469;DHT22;44257;44.804;10.220;2023-08-08T05:57:01;20.00;87.90
58469;DHT22;44257;44.804;10.220;2023-08-08T05:59:27;19.80;87.90
58469;DHT22;44257;44.804;10.220;2023-08-08T06:01:52;19.70;90.20
58469;DHT22;44257;44.804;10.220;2023-08-08T06:04:18;19.50;90.40
58469;DHT22;44257;44.804;10.220;2023-08-08T06:06:44;19.30;90.30
58469;DHT22;44257;44.804;10.220;2023-08-08T06:09:10;19.20;91.20
58469;DHT22;44257;44.804;10.220;2023-08-08T06:11:36;19.10;90.10
58469;DHT22;44257;44.804;10.220;2023-08-08T06:14:01;19.00;90.20
58469;DHT22;44257;44.804;10.220;2023-08-08T06:16:28;18.90;90.40
58469;DHT22;44257;44.804;10.220;2023-08-08T06:18:53;18.80;90.10
58469;DHT22;44257;44.804;10.220;2023-08-08T06:21:19;18.70;90.80
58469;DHT22;44257;44.804;10.220;2023-08-08T06:23:45;18.60;90.90
58469;DHT22;44257;44.804;10.220;2023-08-08T06:26:12;18.50;91.40
58469;DHT22;44257;44.804;10.220;2023-08-08T06:28:38;18.60;91.70
58469;DHT22;44257;44.804;10.220;2023-08-08T06:31:04;18.70;91.50
58469;DHT22;44257;44.804;10.220;2023-08-08T06:33:29;19.00;91.40
58469;DHT22;44257;44.804;10.220;2023-08-08T06:35:56;19.40;91.10
58469;DHT22;44257;44.804;10.220;2023-08-08T06:38:21;19.70;90.40
58469;DHT22;44257;44.804;10.220;2023-08-08T06:40:47;19.80;90.50
58469;DHT22;44257;44.804;10.220;2023-08-08T06:43:13;19.90;90.40
58469;DHT22;44257;44.804;10.220;2023-08-08T06:45:39;20.00;90.40
58469;DHT22;44257;44.804;10.220;2023-08-08T06:48:05;20.00;90.60
58469;DHT22;44257;44.804;10.220;2023-08-08T06:50:31;20.00;90.60
58469;DHT22;44257;44.804;10.220;2023-08-08T06:52:57;20.00;90.90
58469;DHT22;44257;44.804;10.220;2023-08-08T06:55:23;20.00;91.20
58469;DHT22;44257;44.804;10.220;2023-08-08T06:57:49;20.10;91.40
58469;DHT22;44257;44.804;10.220;2023-08-08T07:00:15;20.20;91.70
58469;DHT22;44257;44.804;10.220;2023-08-08T07:02:41;20.50;91.70
58469;DHT22;44257;44.804;10.220;2023-08-08T07:05:07;20.90;91.10
58469;DHT22;44257;44.804;10.220;2023-08-08T07:07:35;21.10;90.80
58469;DHT22;44257;44.804;10.220;2023-08-08T07:10:03;21.40;90.30
58469;DHT22;44257;44.804;10.220;2023-08-08T07:12:29;21.50;90.10
58469;DHT22;44257;44.804;10.220;2023-08-08T07:14:55;21.70;92.10
58469;DHT22;44257;44.804;10.220;2023-08-08T07:17:20;21.80;88.70
58469;DHT22;44257;44.804;10.220;2023-08-08T07:19:46;21.80;90.10
58469;DHT22;44257;44.804;10.220;2023-08-08T07:22:12;21.80;90.10
58469;DHT22;44257;44.804;10.220;2023-08-08T07:24:38;21.80;90.30
58469;DHT22;44257;44.804;10.220;2023-08-08T07:27:04;21.70;91.10
58469;DHT22;44257;44.804;10.220;2023-08-08T07:29:30;21.70;90.40
58469;DHT22;44257;44.804;10.220;2023-08-08T07:31:58;21.50;90.60
58469;DHT22;44257;44.804;10.220;2023-08-08T07:34:24;21.30;90.80
58469;DHT22;44257;44.804;10.220;2023-08-08T07:36:50;21.20;90.20
58469;DHT22;44257;44.804;10.220;2023-08-08T07:39:16;21.00;90.50
58469;DHT22;44257;44.804;10.220;2023-08-08T07:41:42;21.00;90.30
58469;DHT22;44257;44.804;10.220;2023-08-08T07:44:08;21.00;90.80
58469;DHT22;44257;44.804;10.220;2023-08-08T07:46:34;21.20;90.70
58469;DHT22;44257;44.804;10.220;2023-08-08T07:48:59;21.40;90.00
58469;DHT22;44257;44.804;10.220;2023-08-08T07:51:29;21.60;88.80
58469;DHT22;44257;44.804;10.220;2023-08-08T07:53:55;21.70;89.40
58469;DHT22;44257;44.804;10.220;2023-08-08T07:56:20;21.90;88.90
58469;DHT22;44257;44.804;10.220;2023-08-08T07:58:46;22.10;86.50
58469;DHT22;44257;44.804;10.220;2023-08-08T08:01:12;22.30;85.10
58469;DHT22;44257;44.804;10.220;2023-08-08T08:03:39;22.30;86.10
58469;DHT22;44257;44.804;10.220;2023-08-08T08:06:05;22.30;86.50
58469;DHT22;44257;44.804;10.220;2023-08-08T08:08:33;22.50;85.10
58469;DHT22;44257;44.804;10.220;2023-08-08T08:10:59;22.60;84.20
58469;DHT22;44257;44.804;10.220;2023-08-08T08:13:26;22.40;84.40
58469;DHT22;44257;44.804;10.220;2023-08-08T08:15:51;22.50;84.30
58469;DHT22;44257;44.804;10.220;2023-08-08T08:18:17;22.70;83.30
58469;DHT22;44257;44.804;10.220;2023-08-08T08:20:43;22.80;80.90
58469;DHT22;44257;44.804;10.220;2023-08-08T08:23:09;22.90;81.20
58469;DHT22;44257;44.804;10.220;2023-08-08T08:25:35;23.10;83.00
58469;DHT22;44257;44.804;10.220;2023-08-08T08:28:01;23.40;81.50
58469;DHT22;44257;44.804;10.220;2023-08-08T08:30:27;23.50;81.70
58469;DHT22;44257;44.804;10.220;2023-08-08T08:32:53;23.70;82.30
58469;DHT22;44257;44.804;10.220;2023-08-08T08:35:19;23.90;81.20
58469;DHT22;44257;44.804;10.220;2023-08-08T08:37:45;24.00;81.80
58469;DHT22;44257;44.804;10.220;2023-08-08T08:40:11;24.20;81.90
58469;DHT22;44257;44.804;10.220;2023-08-08T08:42:38;24.40;80.10
58469;DHT22;44257;44.804;10.220;2023-08-08T08:45:05;24.70;79.20
58469;DHT22;44257;44.804;10.220;2023-08-08T08:47:32;24.80;78.70
58469;DHT22;44257;44.804;10.220;2023-08-08T08:49:59;24.90;77.10
58469;DHT22;44257;44.804;10.220;2023-08-08T08:52:26;25.00;75.50
58469;DHT22;44257;44.804;10.220;2023-08-08T08:54:53;25.00;74.70
58469;DHT22;44257;44.804;10.220;2023-08-08T08:57:21;25.10;75.20
58469;DHT22;44257;44.804;10.220;2023-08-08T08:59:49;25.20;75.40
58469;DHT22;44257;44.804;10.220;2023-08-08T09:02:16;25.20;75.90
58469;DHT22;44257;44.804;10.220;2023-08-08T09:04:43;25.30;77.30
58469;DHT22;44257;44.804;10.220;2023-08-08T09:07:09;25.30;75.00
58469;DHT22;44257;44.804;10.220;2023-08-08T09:09:36;25.30;75.80
58469;DHT22;44257;44.804;10.220;2023-08-08T09:12:04;25.30;75.80
58469;DHT22;44257;44.804;10.220;2023-08-08T09:14:33;25.40;75.80
58469;DHT22;44257;44.804;10.220;2023-08-08T09:16:58;25.50;74.50
58469;DHT22;44257;44.804;10.220;2023-08-08T09:19:25;25.50;74.10
58469;DHT22;44257;44.804;10.220;2023-08-08T09:21:51;25.50;72.40
58469;DHT22;44257;44.804;10.220;2023-08-08T09:24:18;25.40;73.50
58469;DHT22;44257;44.804;10.220;2023-08-08T09:26:44;25.40;73.50
58469;DHT22;44257;44.804;10.220;2023-08-08T09:29:13;25.50;73.40
58469;DHT22;44257;44.804;10.220;2023-08-08T09:31:39;25.50;74.60
58469;DHT22;44257;44.804;10.220;2023-08-08T09:34:05;25.40;72.10
58469;DHT22;44257;44.804;10.220;2023-08-08T09:36:33;25.30;74.60
58469;DHT22;44257;44.804;10.220;2023-08-08T09:38:59;25.40;72.30
58469;DHT22;44257;44.804;10.220;2023-08-08T09:41:25;25.50;71.90
58469;DHT22;44257;44.804;10.220;2023-08-08T09:43:52;25.60;73.00
58469;DHT22;44257;44.804;10.220;2023-08-08T09:46:19;25.80;76.90
58469;DHT22;44257;44.804;10.220;2023-08-08T09:48:45;26.00;72.40
58469;DHT22;44257;44.804;10.220;2023-08-08T09:51:12;26.20;73.60
58469;DHT22;44257;44.804;10.220;2023-08-08T09:53:39;26.20;71.10
58469;DHT22;44257;44.804;10.220;2023-08-08T09:56:06;26.20;72.00
58469;DHT22;44257;44.804;10.220;2023-08-08T09:58:33;26.30;72.10
58469;DHT22;44257;44.804;10.220;2023-08-08T10:00:59;26.40;72.20
58469;DHT22;44257;44.804;10.220;2023-08-08T10:03:26;26.40;70.10
58469;DHT22;44257;44.804;10.220;2023-08-08T10:05:52;26.40;71.10
58469;DHT22;44257;44.804;10.220;2023-08-08T10:08:18;26.40;74.30
58469;DHT22;44257;44.804;10.220;2023-08-08T10:10:47;26.60;69.50
58469;DHT22;44257;44.804;10.220;2023-08-08T10:13:22;26.80;70.40
58469;DHT22;44257;44.804;10.220;2023-08-08T10:15:49;27.00;70.80
58469;DHT22;44257;44.804;10.220;2023-08-08T10:18:16;27.20;70.90
58469;DHT22;44257;44.804;10.220;2023-08-08T10:20:44;27.30;69.00
58469;DHT22;44257;44.804;10.220;2023-08-08T10:23:10;27.50;67.10
58469;DHT22;44257;44.804;10.220;2023-08-08T10:25:37;27.60;66.90
58469;DHT22;44257;44.804;10.220;2023-08-08T10:28:11;27.70;65.90
58469;DHT22;44257;44.804;10.220;2023-08-08T10:33:22;27.70;67.10
58469;DHT22;44257;44.804;10.220;2023-08-08T10:35:57;27.60;64.60
58469;DHT22;44257;44.804;10.220;2023-08-08T10:38:24;27.50;67.20
58469;DHT22;44257;44.804;10.220;2023-08-08T10:40:58;27.50;68.40
58469;DHT22;44257;44.804;10.220;2023-08-08T10:43:29;27.50;70.50
58469;DHT22;44257;44.804;10.220;2023-08-08T10:46:00;27.70;74.10
58469;DHT22;44257;44.804;10.220;2023-08-08T10:48:26;28.00;68.00
58469;DHT22;44257;44.804;10.220;2023-08-08T10:50:55;28.20;68.30
58469;DHT22;44257;44.804;10.220;2023-08-08T10:53:27;28.30;67.90
58469;DHT22;44257;44.804;10.220;2023-08-08T10:56:03;28.40;66.20
58469;DHT22;44257;44.804;10.220;2023-08-08T10:58:47;28.60;66.90
58469;DHT22;44257;44.804;10.220;2023-08-08T11:01:13;28.70;68.90
58469;DHT22;44257;44.804;10.220;2023-08-08T11:03:41;28.90;71.70
58469;DHT22;44257;44.804;10.220;2023-08-08T11:06:07;29.00;69.70
58469;DHT22;44257;44.804;10.220;2023-08-08T11:08:34;29.20;68.70
58469;DHT22;44257;44.804;10.220;2023-08-08T11:11:02;29.30;69.70
58469;DHT22;44257;44.804;10.220;2023-08-08T11:13:29;29.40;68.60
58469;DHT22;44257;44.804;10.220;2023-08-08T11:15:55;29.50;65.30
58469;DHT22;44257;44.804;10.220;2023-08-08T11:18:21;29.50;70.10
58469;DHT22;44257;44.804;10.220;2023-08-08T11:20:48;29.60;69.50
58469;DHT22;44257;44.804;10.220;2023-08-08T11:23:14;29.80;69.20
58469;DHT22;44257;44.804;10.220;2023-08-08T11:25:42;29.80;66.80
58469;DHT22;44257;44.804;10.220;2023-08-08T11:28:08;29.70;67.20
58469;DHT22;44257;44.804;10.220;2023-08-08T11:30:37;29.50;66.10
58469;DHT22;44257;44.804;10.220;2023-08-08T11:33:04;29.50;72.20
58469;DHT22;44257;44.804;10.220;2023-08-08T11:35:30;29.70;67.70
58469;DHT22;44257;44.804;10.220;2023-08-08T11:37:58;29.80;65.90
58469;DHT22;44257;44.804;10.220;2023-08-08T11:40:28;29.80;65.60
58469;DHT22;44257;44.804;10.220;2023-08-08T11:42:55;29.70;65.40
58469;DHT22;44257;44.804;10.220;2023-08-08T11:45:24;29.70;67.80
58469;DHT22;44257;44.804;10.220;2023-08-08T11:47:54;29.80;67.30
58469;DHT22;44257;44.804;10.220;2023-08-08T11:50:22;29.90;65.90
58469;DHT22;44257;44.804;10.220;2023-08-08T11:52:51;29.80;63.70
58469;DHT22;44257;44.804;10.220;2023-08-08T11:55:17;29.70;65.90
58469;DHT22;44257;44.804;10.220;2023-08-08T11:57:48;29.70;64.40
58469;DHT22;44257;44.804;10.220;2023-08-08T12:00:15;29.80;68.10
58469;DHT22;44257;44.804;10.220;2023-08-08T12:02:44;29.90;64.70
58469;DHT22;44257;44.804;10.220;2023-08-08T12:05:12;30.00;69.00
58469;DHT22;44257;44.804;10.220;2023-08-08T12:07:40;30.00;63.10
58469;DHT22;44257;44.804;10.220;2023-08-08T12:10:17;30.10;61.90
58469;DHT22;44257;44.804;10.220;2023-08-08T12:12:44;30.00;61.90
58469;DHT22;44257;44.804;10.220;2023-08-08T12:15:11;30.00;62.00
58469;DHT22;44257;44.804;10.220;2023-08-08T12:17:37;30.10;63.20
58469;DHT22;44257;44.804;10.220;2023-08-08T12:20:04;30.20;65.70
58469;DHT22;44257;44.804;10.220;2023-08-08T12:22:34;30.40;63.60
58469;DHT22;44257;44.804;10.220;2023-08-08T12:25:00;30.50;62.10
58469;DHT22;44257;44.804;10.220;2023-08-08T12:27:26;30.60;60.10
58469;DHT22;44257;44.804;10.220;2023-08-08T12:29:52;30.60;59.80
58469;DHT22;44257;44.804;10.220;2023-08-08T12:32:22;30.70;64.50
58469;DHT22;44257;44.804;10.220;2023-08-08T12:34:52;30.90;62.30
58469;DHT22;44257;44.804;10.220;2023-08-08T12:37:18;31.10;63.50
58469;DHT22;44257;44.804;10.220;2023-08-08T12:39:44;31.30;59.70
58469;DHT22;44257;44.804;10.220;2023-08-08T12:42:10;31.30;57.60
58469;DHT22;44257;44.804;10.220;2023-08-08T12:44:36;31.00;58.80
58469;DHT22;44257;44.804;10.220;2023-08-08T12:47:01;31.00;58.20
58469;DHT22;44257;44.804;10.220;2023-08-08T12:49:27;31.00;56.50
58469;DHT22;44257;44.804;10.220;2023-08-08T12:51:53;31.00;58.70
58469;DHT22;44257;44.804;10.220;2023-08-08T12:54:21;31.00;59.70
58469;DHT22;44257;44.804;10.220;2023-08-08T12:56:47;31.20;61.20
58469;DHT22;44257;44.804;10.220;2023-08-08T12:59:14;31.40;57.60
58469;DHT22;44257;44.804;10.220;2023-08-08T13:01:39;31.30;56.40
58469;DHT22;44257;44.804;10.220;2023-08-08T13:04:05;31.30;58.50
58469;DHT22;44257;44.804;10.220;2023-08-08T13:06:31;31.40;54.90
58469;DHT22;44257;44.804;10.220;2023-08-08T13:08:58;31.50;57.10
58469;DHT22;44257;44.804;10.220;2023-08-08T13:11:26;31.60;55.60
58469;DHT22;44257;44.804;10.220;2023-08-08T13:13:52;31.50;54.10
58469;DHT22;44257;44.804;10.220;2023-08-08T13:16:17;31.00;56.00
58469;DHT22;44257;44.804;10.220;2023-08-08T13:18:44;30.70;58.30
58469;DHT22;44257;44.804;10.220;2023-08-08T13:21:09;30.70;56.70
58469;DHT22;44257;44.804;10.220;2023-08-08T13:23:36;30.80;56.90
58469;DHT22;44257;44.804;10.220;2023-08-08T13:26:02;31.10;58.20
58469;DHT22;44257;44.804;10.220;2023-08-08T13:28:29;31.30;55.30
58469;DHT22;44257;44.804;10.220;2023-08-08T13:30:55;31.50;58.00
58469;DHT22;44257;44.804;10.220;2023-08-08T13:33:21;31.70;58.70
58469;DHT22;44257;44.804;10.220;2023-08-08T13:35:47;31.80;54.40
58469;DHT22;44257;44.804;10.220;2023-08-08T13:38:13;32.00;57.10
58469;DHT22;44257;44.804;10.220;2023-08-08T13:40:41;32.10;54.90
58469;DHT22;44257;44.804;10.220;2023-08-08T13:43:07;32.00;57.60
58469;DHT22;44257;44.804;10.220;2023-08-08T13:45:33;32.20;55.20
58469;DHT22;44257;44.804;10.220;2023-08-08T13:47:58;32.30;54.50
58469;DHT22;44257;44.804;10.220;2023-08-08T13:50:24;32.40;54.70
58469;DHT22;44257;44.804;10.220;2023-08-08T13:52:50;32.50;53.00
58469;DHT22;44257;44.804;10.220;2023-08-08T13:55:18;32.60;53.80
58469;DHT22;44257;44.804;10.220;2023-08-08T13:57:44;32.60;53.80
58469;DHT22;44257;44.804;10.220;2023-08-08T14:00:11;32.60;51.90
58469;DHT22;44257;44.804;10.220;2023-08-08T14:02:38;32.50;53.80
58469;DHT22;44257;44.804;10.220;2023-08-08T14:05:05;32.50;53.10
58469;DHT22;44257;44.804;10.220;2023-08-08T14:07:35;32.60;56.00
58469;DHT22;44257;44.804;10.220;2023-08-08T14:10:02;32.90;55.30
58469;DHT22;44257;44.804;10.220;2023-08-08T14:12:29;33.10;55.80
58469;DHT22;44257;44.804;10.220;2023-08-08T14:14:55;33.20;55.50
58469;DHT22;44257;44.804;10.220;2023-08-08T14:17:21;33.20;54.50
58469;DHT22;44257;44.804;10.220;2023-08-08T14:19:47;33.20;52.40
58469;DHT22;44257;44.804;10.220;2023-08-08T14:22:13;33.20;51.30
58469;DHT22;44257;44.804;10.220;2023-08-08T14:24:42;33.40;56.10
58469;DHT22;44257;44.804;10.220;2023-08-08T14:27:09;33.50;54.30
58469;DHT22;44257;44.804;10.220;2023-08-08T14:29:35;33.60;52.90
58469;DHT22;44257;44.804;10.220;2023-08-08T14:32:01;33.60;54.20
58469;DHT22;44257;44.804;10.220;2023-08-08T14:34:30;33.60;53.90
58469;DHT22;44257;44.804;10.220;2023-08-08T14:36:58;33.70;53.70
58469;DHT22;44257;44.804;10.220;2023-08-08T14:39:24;33.70;52.80
58469;DHT22;44257;44.804;10.220;2023-08-08T14:41:50;33.60;53.90
58469;DHT22;44257;44.804;10.220;2023-08-08T14:44:16;33.60;53.00
58469;DHT22;44257;44.804;10.220;2023-08-08T14:46:42;33.40;53.40
58469;DHT22;44257;44.804;10.220;2023-08-08T14:49:08;33.30;51.20
58469;DHT22;44257;44.804;10.220;2023-08-08T14:51:35;33.20;53.70
58469;DHT22;44257;44.804;10.220;2023-08-08T14:54:02;33.10;54.90
58469;DHT22;44257;44.804;10.220;2023-08-08T14:56:28;33.10;54.00
58469;DHT22;44257;44.804;10.220;2023-08-08T14:58:54;33.00;52.70
58469;DHT22;44257;44.804;10.220;2023-08-08T15:01:20;32.90;52.90
58469;DHT22;44257;44.804;10.220;2023-08-08T15:03:46;32.70;49.90
58469;DHT22;44257;44.804;10.220;2023-08-08T15:06:12;32.60;50.00
58469;DHT22;44257;44.804;10.220;2023-08-08T15:08:38;32.50;52.00
58469;DHT22;44257;44.804;10.220;2023-08-08T15:11:04;32.50;53.70
58469;DHT22;44257;44.804;10.220;2023-08-08T15:13:31;32.60;52.30
58469;DHT22;44257;44.804;10.220;2023-08-08T15:15:57;32.60;52.80